sensor_id;sensor_type;location;lat;lon;timestamp;P1;durP1;ratioP1;P2;durP2;ratioP2
84231;SDS011;74368;48.022;13.830;2023-11-22T21:24:27;7.68;;;2.65;;
84231;SDS011;74368;48.022;13.830;2023-11-22T21:26:55;4.00;;;2.50;;
84231;SDS011;74368;48.022;13.830;2023-11-22T21:31:22;5.03;;;4.32;;
84231;SDS011;74368;48.022;13.830;2023-11-22T21:33:48;5.57;;;4.85;;
84231;SDS011;74368;48.022;13.830;2023-11-22T21:36:14;6.38;;;5.28;;
84231;SDS011;74368;48.022;13.830;2023-11-22T21:38:40;6.35;;;5.53;;
84231;SDS011;74368;48.022;13.830;2023-11-22T21:41:06;7.03;;;5.45;;
84231;SDS011;74368;48.022;13.830;2023-11-22T21:43:36;7.25;;;5.75;;
84231;SDS011;74368;48.022;13.830;2023-11-22T21:46:02;6.47;;;5.00;;
84231;SDS011;74368;48.022;13.830;2023-11-22T21:48:28;8.80;;;6.85;;
84231;SDS011;74368;48.022;13.830;2023-11-22T21:50:54;7.90;;;5.72;;
84231;SDS011;74368;48.022;13.830;2023-11-22T21:53:19;9.82;;;6.15;;
84231;SDS011;74368;48.022;13.830;2023-11-22T21:55:45;8.90;;;5.80;;
84231;SDS011;74368;48.022;13.830;2023-11-22T21:58:10;10.95;;;6.50;;
84231;SDS011;74368;48.022;13.830;2023-11-22T22:00:37;9.20;;;6.20;;
84231;SDS011;74368;48.022;13.830;2023-11-22T22:03:02;11.05;;;6.97;;
84231;SDS011;74368;48.022;13.830;2023-11-22T22:05:28;10.40;;;6.55;;
84231;SDS011;74368;48.022;13.830;2023-11-22T22:07:53;8.88;;;6.20;;
84231;SDS011;74368;48.022;13.830;2023-11-22T22:10:18;11.35;;;7.40;;
84231;SDS011;74368;48.022;13.830;2023-11-22T22:12:44;12.40;;;7.13;;
84231;SDS011;74368;48.022;13.830;2023-11-22T22:15:10;10.27;;;6.72;;
84231;SDS011;74368;48.022;13.830;2023-11-22T22:17:35;10.77;;;6.72;;
84231;SDS011;74368;48.022;13.830;2023-11-22T22:20:01;13.75;;;6.85;;
84231;SDS011;74368;48.022;13.830;2023-11-22T22:22:27;12.90;;;7.43;;
84231;SDS011;74368;48.022;13.830;2023-11-22T22:24:52;12.32;;;6.75;;
84231;SDS011;74368;48.022;13.830;2023-11-22T22:27:18;10.40;;;6.50;;
84231;SDS011;74368;48.022;13.830;2023-11-22T22:29:44;10.35;;;6.18;;
84231;SDS011;74368;48.022;13.830;2023-11-22T22:32:09;12.07;;;6.88;;
84231;SDS011;74368;48.022;13.830;2023-11-22T22:34:34;11.10;;;6.63;;
84231;SDS011;74368;48.022;13.830;2023-11-22T22:36:59;12.52;;;6.80;;
84231;SDS011;74368;48.022;13.830;2023-11-22T22:39:25;11.88;;;6.75;;
84231;SDS011;74368;48.022;13.830;2023-11-22T22:41:51;11.73;;;6.70;;
84231;SDS011;74368;48.022;13.830;2023-11-22T22:44:17;12.77;;;7.53;;
84231;SDS011;74368;48.022;13.830;2023-11-22T22:46:42;11.45;;;7.20;;
84231;SDS011;74368;48.022;13.830;2023-11-22T22:49:08;12.60;;;7.20;;
84231;SDS011;74368;48.022;13.830;2023-11-22T22:51:33;12.50;;;7.40;;
84231;SDS011;74368;48.022;13.830;2023-11-22T22:53:58;12.93;;;8.35;;
84231;SDS011;74368;48.022;13.830;2023-11-22T22:56:24;11.23;;;6.72;;
84231;SDS011;74368;48.022;13.830;2023-11-22T22:58:49;10.80;;;6.60;;
84231;SDS011;74368;48.022;13.830;2023-11-22T23:01:15;10.77;;;6.32;;
84231;SDS011;74368;48.022;13.830;2023-11-22T23:03:40;12.40;;;6.63;;
84231;SDS011;74368;48.022;13.830;2023-11-22T23:06:07;11.38;;;7.13;;
84231;SDS011;74368;48.022;13.830;2023-11-22T23:08:36;10.90;;;7.00;;
84231;SDS011;74368;48.022;13.830;2023-11-22T23:11:02;13.82;;;6.85;;
84231;SDS011;74368;48.022;13.830;2023-11-22T23:13:30;14.18;;;7.13;;
84231;SDS011;74368;48.022;13.830;2023-11-22T23:15:56;12.63;;;6.70;;
84231;SDS011;74368;48.022;13.830;2023-11-22T23:18:21;10.23;;;6.68;;
84231;SDS011;74368;48.022;13.830;2023-11-22T23:20:48;11.70;;;6.72;;
84231;SDS011;74368;48.022;13.830;2023-11-22T23:23:13;12.18;;;6.53;;
84231;SDS011;74368;48.022;13.830;2023-11-22T23:25:39;13.52;;;8.13;;
84231;SDS011;74368;48.022;13.830;2023-11-22T23:28:04;11.60;;;6.57;;
84231;SDS011;74368;48.022;13.830;2023-11-22T23:30:30;12.50;;;7.07;;
84231;SDS011;74368;48.022;13.830;2023-11-22T23:32:55;12.00;;;7.35;;
84231;SDS011;74368;48.022;13.830;2023-11-22T23:35:20;12.73;;;6.57;;
84231;SDS011;74368;48.022;13.830;2023-11-22T23:37:46;12.77;;;6.90;;
84231;SDS011;74368;48.022;13.830;2023-11-22T23:40:13;10.95;;;6.88;;
84231;SDS011;74368;48.022;13.830;2023-11-22T23:42:40;10.18;;;6.22;;
84231;SDS011;74368;48.022;13.830;2023-11-22T23:45:06;11.20;;;6.57;;
84231;SDS011;74368;48.022;13.830;2023-11-22T23:47:36;12.43;;;6.68;;
84231;SDS011;74368;48.022;13.830;2023-11-22T23:50:02;11.05;;;6.70;;
84231;SDS011;74368;48.022;13.830;2023-11-22T23:52:29;11.57;;;6.47;;
84231;SDS011;74368;48.022;13.830;2023-11-22T23:54:54;12.23;;;7.00;;
84231;SDS011;74368;48.022;13.830;2023-11-22T23:57:22;11.90;;;7.30;;
84231;SDS011;74368;48.022;13.830;2023-11-22T23:59:48;13.00;;;7.50;;
